Time;durP1;ratioP1;P1;durP2;ratioP2;P2;SDS_P1;SDS_P2;PMS_P1;PMS_P2;Temp;Humidity;BMP_temperature;BMP_pressure;BME280_temperature;BME280_humidity;BME280_pressure;Samples;Min_cycle;Max_cycle;Signal;HPM_P1;HPM_P2
2024/04/07 00:01:35;;;;;;;8.63;4.90;;;18.10;99.90;;;;;;5090726;28;20439;-66
2024/04/07 00:04:04;;;;;;;7.30;4.87;;;18.10;99.90;;;;;;5090693;28;20465;-66
2024/04/07 00:06:31;;;;;;;9.37;4.30;;;18.10;99.90;;;;;;5093631;28;20457;-65
2024/04/07 00:08:58;;;;;;;3.93;3.50;;;18.10;99.90;;;;;;5095943;28;20526;-66
2024/04/07 00:11:25;;;;;;;7.10;4.20;;;18.00;99.90;;;;;;5096070;28;20450;-66
2024/04/07 00:13:52;;;;;;;5.57;4.37;;;18.00;99.90;;;;;;5095999;28;20426;-66
2024/04/07 00:16:18;;;;;;;8.07;4.83;;;18.00;99.90;;;;;;5087295;28;20687;-65
2024/04/07 00:18:45;;;;;;;6.40;3.87;;;18.00;99.90;;;;;;5095050;28;20494;-66
2024/04/07 00:21:13;;;;;;;3.97;3.43;;;17.90;99.90;;;;;;5095909;28;20935;-66
2024/04/07 00:23:40;;;;;;;7.80;3.80;;;17.90;99.90;;;;;;5096269;28;20484;-66
2024/04/07 00:26:07;;;;;;;10.10;4.27;;;17.90;99.90;;;;;;5095690;28;20500;-67
2024/04/07 00:28:34;;;;;;;5.07;3.67;;;17.90;99.90;;;;;;5095642;28;20478;-65
2024/04/07 00:31:01;;;;;;;6.13;4.00;;;17.90;99.90;;;;;;5095329;28;20442;-65
2024/04/07 00:33:28;;;;;;;4.67;4.20;;;17.80;99.90;;;;;;5095896;28;20450;-65
2024/04/07 00:35:57;;;;;;;4.97;4.00;;;17.80;99.90;;;;;;5095531;28;20443;-65
2024/04/07 00:38:25;;;;;;;3.87;3.57;;;17.80;99.90;;;;;;5096021;28;20518;-66
2024/04/07 00:40:53;;;;;;;4.83;3.30;;;17.80;99.90;;;;;;5095320;28;20962;-66
2024/04/07 00:43:20;;;;;;;5.73;4.57;;;17.80;99.90;;;;;;5094792;28;20541;-66
2024/04/07 00:45:47;;;;;;;5.10;4.40;;;17.70;99.90;;;;;;5095225;28;20435;-66
2024/04/07 00:48:17;;;;;;;4.03;3.73;;;17.70;99.90;;;;;;5094377;28;20431;-65
2024/04/07 00:50:43;;;;;;;9.43;4.17;;;17.70;99.90;;;;;;5094046;28;20439;-66
2024/04/07 00:53:11;;;;;;;5.90;4.03;;;17.70;99.90;;;;;;5094076;28;20434;-66
2024/04/07 00:55:40;;;;;;;5.80;4.23;;;17.60;99.90;;;;;;5093140;28;20454;-66
2024/04/07 00:58:07;;;;;;;8.30;5.53;;;17.60;99.90;;;;;;5094305;28;20903;-64
2024/04/07 01:00:33;;;;;;;5.20;3.83;;;17.50;99.90;;;;;;5086430;28;20871;-64
2024/04/07 01:03:00;;;;;;;4.83;4.10;;;17.50;99.90;;;;;;5065601;28;20480;-64
2024/04/07 01:05:26;;;;;;;5.17;4.30;;;17.50;99.90;;;;;;5064149;28;20463;-65
2024/04/07 01:07:58;;;;;;;7.23;5.20;;;17.50;99.90;;;;;;5058544;28;20439;-65
2024/04/07 01:10:24;;;;;;;6.13;4.87;;;17.50;99.90;;;;;;5071151;28;20448;-65
2024/04/07 01:12:55;;;;;;;6.80;4.90;;;17.50;99.90;;;;;;5075240;28;20439;-66
2024/04/07 01:15:21;;;;;;;5.20;4.70;;;17.50;99.90;;;;;;5070826;28;20447;-65
2024/04/07 01:17:48;;;;;;;6.90;4.73;;;17.40;99.90;;;;;;5073094;28;20436;-66
2024/04/07 01:20:15;;;;;;;5.10;4.20;;;17.40;99.90;;;;;;5066878;28;20549;-66
2024/04/07 01:22:42;;;;;;;6.37;4.40;;;17.40;99.90;;;;;;5065801;28;20531;-68
2024/04/07 01:25:15;;;;;;;10.33;5.10;;;17.40;99.90;;;;;;5075421;28;20455;-68
2024/04/07 01:27:42;;;;;;;6.20;4.80;;;17.40;99.90;;;;;;5076713;28;20443;-68
2024/04/07 01:30:09;;;;;;;5.60;4.37;;;17.40;99.90;;;;;;5074196;22;20486;-68
2024/04/07 01:32:35;;;;;;;5.40;4.23;;;17.40;99.90;;;;;;5070521;28;20439;-69
2024/04/07 01:35:01;;;;;;;7.27;4.70;;;17.40;99.90;;;;;;5067558;28;20558;-69
2024/04/07 01:37:28;;;;;;;10.50;4.37;;;17.40;99.90;;;;;;5068934;28;20518;-69
2024/04/07 01:39:55;;;;;;;6.57;5.20;;;17.30;99.90;;;;;;5068482;28;20476;-69
2024/04/07 01:42:34;;;;;;;8.60;4.50;;;17.30;99.90;;;;;;5066535;28;20529;-69
2024/04/07 01:45:00;;;;;;;6.83;4.80;;;17.30;99.90;;;;;;5067674;28;20480;-69
2024/04/07 01:47:27;;;;;;;8.77;4.57;;;17.30;99.90;;;;;;5069166;28;20805;-68
2024/04/07 01:49:53;;;;;;;6.43;4.80;;;17.40;99.90;;;;;;5066150;28;20439;-68
2024/04/07 01:52:20;;;;;;;11.00;4.23;;;17.40;99.90;;;;;;5068464;28;20435;-68
2024/04/07 01:54:46;;;;;;;6.27;4.73;;;17.40;99.90;;;;;;5068089;28;20977;-69
2024/04/07 01:57:15;;;;;;;4.50;3.77;;;17.40;99.90;;;;;;5068002;28;20471;-68
2024/04/07 01:59:43;;;;;;;4.40;3.93;;;17.30;99.90;;;;;;5064422;28;20567;-69
2024/04/07 02:02:10;;;;;;;4.23;3.83;;;17.30;99.90;;;;;;5066777;28;20904;-69
2024/04/07 02:04:36;;;;;;;4.17;3.77;;;17.30;99.90;;;;;;5066992;28;20458;-68
2024/04/07 02:07:03;;;;;;;5.20;4.13;;;17.30;99.90;;;;;;5068919;28;20453;-69
2024/04/07 02:09:29;;;;;;;5.20;3.90;;;17.30;99.90;;;;;;5067865;28;20496;-69
2024/04/07 02:11:57;;;;;;;5.73;4.30;;;17.30;99.90;;;;;;5070775;28;20933;-68
2024/04/07 02:14:23;;;;;;;4.10;3.30;;;17.30;99.90;;;;;;5063098;28;20458;-69
2024/04/07 02:16:51;;;;;;;8.40;4.27;;;17.20;99.90;;;;;;5067133;28;20440;-69
2024/04/07 02:19:19;;;;;;;5.70;3.70;;;17.20;99.90;;;;;;5069922;28;20478;-69
2024/04/07 02:21:46;;;;;;;5.23;4.13;;;17.10;99.90;;;;;;5060273;28;20435;-69
2024/04/07 02:24:12;;;;;;;4.90;3.93;;;17.10;99.90;;;;;;5067815;28;20542;-68
2024/04/07 02:26:39;;;;;;;4.97;3.63;;;17.10;99.90;;;;;;5065226;28;20874;-69
2024/04/07 02:29:05;;;;;;;3.90;3.43;;;17.10;99.90;;;;;;5065547;28;20537;-69
2024/04/07 02:31:32;;;;;;;7.17;4.07;;;17.00;99.90;;;;;;5067155;28;21081;-69
2024/04/07 02:34:00;;;;;;;4.70;4.30;;;17.00;99.90;;;;;;5071083;28;20212;-68
2024/04/07 02:36:27;;;;;;;7.00;3.60;;;17.00;99.90;;;;;;5067517;28;20443;-68
2024/04/07 02:38:54;;;;;;;5.70;4.03;;;17.00;99.90;;;;;;5066112;28;20463;-68
2024/04/07 02:41:21;;;;;;;6.03;3.80;;;17.00;99.90;;;;;;5067978;28;20526;-69
2024/04/07 02:43:47;;;;;;;6.10;3.80;;;16.90;99.90;;;;;;5069476;28;20575;-68
2024/04/07 02:48:58;;;;;;;5.33;3.93;;;16.90;99.90;;;;;;5066007;28;20422;-68
2024/04/07 02:51:26;;;;;;;5.00;4.40;;;16.90;99.90;;;;;;5064949;28;20523;-68
2024/04/07 02:53:53;;;;;;;6.20;4.20;;;16.90;99.90;;;;;;5066598;28;20555;-68
2024/04/07 02:56:20;;;;;;;6.27;3.90;;;16.90;99.90;;;;;;5066000;28;20460;-68
2024/04/07 02:58:46;;;;;;;5.50;4.30;;;16.90;99.90;;;;;;5065695;28;20443;-68
2024/04/07 03:01:13;;;;;;;6.20;3.90;;;16.90;99.90;;;;;;5061807;28;20443;-68
2024/04/07 03:03:39;;;;;;;4.53;4.13;;;16.90;99.90;;;;;;5061974;28;20651;-69
2024/04/07 03:06:08;;;;;;;4.53;4.03;;;16.90;99.90;;;;;;5072796;28;20518;-68
2024/04/07 03:08:35;;;;;;;6.43;3.47;;;16.90;99.90;;;;;;5072709;28;20205;-68
2024/04/07 03:11:03;;;;;;;5.17;3.67;;;16.90;99.90;;;;;;5072754;28;20876;-68
2024/04/07 03:13:30;;;;;;;6.20;4.30;;;16.90;99.90;;;;;;5072602;28;20435;-68
2024/04/07 03:15:57;;;;;;;6.37;4.50;;;16.90;99.90;;;;;;5072976;28;20445;-68
2024/04/07 03:18:23;;;;;;;5.40;3.10;;;16.90;99.90;;;;;;5073169;28;20799;-69
2024/04/07 03:20:50;;;;;;;4.30;2.90;;;16.90;99.90;;;;;;5074125;28;20442;-69
2024/04/07 03:23:16;;;;;;;9.07;4.10;;;16.90;99.90;;;;;;5074047;28;20565;-69
2024/04/07 03:25:45;;;;;;;6.53;3.77;;;16.80;99.90;;;;;;5073930;28;20450;-68
2024/04/07 03:28:11;;;;;;;7.63;4.40;;;16.80;99.90;;;;;;5074966;28;20948;-68
2024/04/07 03:30:38;;;;;;;9.63;3.73;;;16.80;99.90;;;;;;5073466;28;20447;-68
2024/04/07 03:33:04;;;;;;;4.73;3.73;;;16.80;99.90;;;;;;5074112;28;20440;-69
2024/04/07 03:35:32;;;;;;;3.63;3.33;;;16.80;99.90;;;;;;5074081;28;20608;-69
2024/04/07 03:37:59;;;;;;;4.90;4.20;;;16.70;99.90;;;;;;5073100;28;20501;-69
2024/04/07 03:40:26;;;;;;;4.00;3.20;;;16.70;99.90;;;;;;5072937;28;20466;-69
2024/04/07 03:42:55;;;;;;;5.00;3.93;;;16.70;99.90;;;;;;5072742;28;21036;-69
2024/04/07 03:45:22;;;;;;;6.60;4.47;;;16.70;99.90;;;;;;5072032;28;20466;-69
2024/04/07 03:47:49;;;;;;;4.20;3.80;;;16.80;99.90;;;;;;5072738;28;20470;-69
2024/04/07 03:50:15;;;;;;;9.70;4.13;;;16.70;99.90;;;;;;5072176;28;20533;-69
2024/04/07 03:52:42;;;;;;;6.43;4.40;;;16.80;99.90;;;;;;5072238;28;20500;-69
2024/04/07 03:55:08;;;;;;;6.47;4.87;;;16.80;99.90;;;;;;5072143;28;20811;-68
2024/04/07 03:57:35;;;;;;;5.50;4.50;;;16.80;99.90;;;;;;5073434;28;20529;-67
2024/04/07 04:00:04;;;;;;;4.07;3.57;;;16.80;99.90;;;;;;5073965;28;20542;-68
2024/04/07 04:02:31;;;;;;;17.83;5.60;;;16.70;99.90;;;;;;5073317;28;21036;-70
2024/04/07 04:04:58;;;;;;;6.83;4.00;;;16.70;99.90;;;;;;5072444;28;21013;-68
2024/04/07 04:07:27;;;;;;;4.47;3.33;;;16.70;99.90;;;;;;5061995;28;20444;-69
2024/04/07 04:09:54;;;;;;;7.80;3.73;;;16.70;99.90;;;;;;5067226;28;20455;-69
2024/04/07 04:12:21;;;;;;;4.87;3.07;;;16.60;99.90;;;;;;5061920;28;20450;-68
2024/04/07 04:14:47;;;;;;;4.90;4.13;;;16.60;99.90;;;;;;5065934;28;20501;-68
2024/04/07 04:17:16;;;;;;;6.60;4.27;;;16.60;99.90;;;;;;5067263;28;20467;-69
2024/04/07 04:19:44;;;;;;;4.33;3.37;;;16.50;99.90;;;;;;5071139;28;20466;-69
2024/04/07 04:22:11;;;;;;;5.63;3.60;;;16.50;99.90;;;;;;5073782;28;20828;-69
2024/04/07 04:24:38;;;;;;;5.40;4.50;;;16.50;99.90;;;;;;5073177;28;20548;-72
2024/04/07 04:27:06;;;;;;;6.60;4.50;;;16.40;99.90;;;;;;5065089;28;20431;-69
2024/04/07 04:29:33;;;;;;;6.63;4.50;;;16.50;99.90;;;;;;5072917;28;20454;-68
2024/04/07 04:32:00;;;;;;;6.27;4.60;;;16.50;99.90;;;;;;5068919;28;20432;-69
2024/04/07 04:34:28;;;;;;;8.40;5.33;;;16.40;99.90;;;;;;5069205;28;20459;-69
2024/04/07 04:36:58;;;;;;;7.70;5.47;;;16.40;99.90;;;;;;5074298;28;20510;-69
2024/04/07 04:39:24;;;;;;;5.43;4.53;;;16.40;99.90;;;;;;5074258;28;20463;-68
2024/04/07 04:41:51;;;;;;;5.60;3.63;;;16.40;99.90;;;;;;5073570;28;20439;-69
2024/04/07 04:44:18;;;;;;;6.20;4.60;;;16.40;99.90;;;;;;5073302;28;20896;-69
2024/04/07 04:46:47;;;;;;;4.77;3.87;;;16.30;99.90;;;;;;5054924;28;20526;-69
2024/04/07 04:49:14;;;;;;;4.33;3.93;;;16.30;99.90;;;;;;5054156;28;20523;-70
2024/04/07 04:51:42;;;;;;;4.50;3.70;;;16.30;99.90;;;;;;5054852;28;20439;-69
2024/04/07 04:54:09;;;;;;;8.30;4.77;;;16.30;99.90;;;;;;5056441;28;21051;-69
2024/04/07 04:56:37;;;;;;;5.80;3.97;;;16.30;99.90;;;;;;5057519;28;20788;-69
2024/04/07 04:59:04;;;;;;;4.43;3.73;;;16.30;99.90;;;;;;5057412;28;20466;-69
2024/04/07 05:01:31;;;;;;;6.23;4.03;;;16.30;99.90;;;;;;5057503;28;20861;-68
2024/04/07 05:03:57;;;;;;;6.50;4.00;;;16.30;99.90;;;;;;5057635;28;20506;-69
2024/04/07 05:06:25;;;;;;;3.97;3.50;;;16.20;99.90;;;;;;5067764;28;20492;-68
2024/04/07 05:08:52;;;;;;;6.60;4.50;;;16.20;99.90;;;;;;5074706;28;20528;-69
2024/04/07 05:11:20;;;;;;;5.90;4.10;;;16.20;99.90;;;;;;5075289;28;20442;-69
2024/04/07 05:13:45;;;;;;;4.60;4.00;;;16.20;99.90;;;;;;5072581;28;20455;-68
2024/04/07 05:16:13;;;;;;;3.93;3.53;;;16.20;99.90;;;;;;5070389;28;20446;-69
2024/04/07 05:18:39;;;;;;;4.63;3.40;;;16.30;99.90;;;;;;5074739;28;20239;-68
2024/04/07 05:21:07;;;;;;;5.87;4.10;;;16.30;99.90;;;;;;5073948;28;20462;-68
2024/04/07 05:23:35;;;;;;;11.00;3.80;;;16.30;99.90;;;;;;5067872;28;20338;-68
2024/04/07 05:26:11;;;;;;;6.40;3.70;;;16.30;99.90;;;;;;5076710;28;20455;-69
2024/04/07 05:28:37;;;;;;;5.40;3.70;;;16.40;99.90;;;;;;5071015;28;20462;-69
2024/04/07 05:31:06;;;;;;;5.40;3.13;;;16.40;99.90;;;;;;5069578;28;20461;-69
2024/04/07 05:33:32;;;;;;;5.83;4.30;;;16.40;99.90;;;;;;5066250;28;20438;-69
2024/04/07 05:35:59;;;;;;;4.17;3.50;;;16.40;99.90;;;;;;5062311;28;20525;-69
2024/04/07 05:38:25;;;;;;;6.97;4.00;;;16.50;99.90;;;;;;5067957;28;20203;-60
2024/04/07 05:40:55;;;;;;;4.30;3.77;;;16.50;99.90;;;;;;5065941;28;20446;-61
2024/04/07 05:43:23;;;;;;;5.37;3.60;;;16.60;99.90;;;;;;5068471;28;20291;-62
2024/04/07 05:45:51;;;;;;;3.17;2.70;;;16.60;99.90;;;;;;5065941;28;20446;-62
2024/04/07 05:48:17;;;;;;;3.97;2.93;;;16.70;99.90;;;;;;5062189;28;20539;-61
2024/04/07 05:50:44;;;;;;;3.73;3.30;;;16.70;99.90;;;;;;5064260;28;20436;-61
2024/04/07 05:53:10;;;;;;;12.47;3.43;;;16.80;99.90;;;;;;5062234;28;20531;-62
2024/04/07 05:55:38;;;;;;;4.27;3.30;;;16.90;99.90;;;;;;5063371;28;20466;-62
2024/04/07 05:58:04;;;;;;;3.67;2.97;;;17.00;99.90;;;;;;5064779;28;20446;-61
2024/04/07 06:00:34;;;;;;;5.47;3.77;;;17.00;99.90;;;;;;5057068;28;20435;-61
2024/04/07 06:03:00;;;;;;;8.13;5.73;;;17.10;99.90;;;;;;5053449;28;20877;-62
2024/04/07 06:05:27;;;;;;;4.53;4.00;;;17.20;99.90;;;;;;5053338;28;20491;-60
2024/04/07 06:07:53;;;;;;;4.27;3.33;;;17.30;99.90;;;;;;5053226;28;20468;-62
2024/04/07 06:10:20;;;;;;;4.17;3.63;;;17.50;99.90;;;;;;5053583;28;20473;-60
2024/04/07 06:12:46;;;;;;;4.00;3.30;;;17.60;99.90;;;;;;5053303;28;20490;-62
2024/04/07 06:15:13;;;;;;;3.40;3.10;;;17.70;99.90;;;;;;5064082;28;20459;-62
2024/04/07 06:17:43;;;;;;;6.47;3.80;;;17.70;99.90;;;;;;5066184;28;20288;-60
2024/04/07 06:20:10;;;;;;;5.00;3.30;;;17.80;99.90;;;;;;5065289;28;20443;-61
2024/04/07 06:22:37;;;;;;;4.65;3.00;;;17.80;99.90;;;;;;5070128;28;20526;-61
2024/04/07 06:25:04;;;;;;;6.93;3.17;;;17.90;99.90;;;;;;5065052;28;20507;-61
2024/04/07 06:27:31;;;;;;;3.43;2.80;;;17.90;99.90;;;;;;5072757;28;20496;-61
2024/04/07 06:30:00;;;;;;;4.20;3.20;;;17.90;99.90;;;;;;5070644;28;20447;-61
2024/04/07 06:32:26;;;;;;;4.10;3.20;;;18.00;99.90;;;;;;5063833;28;20439;-61
2024/04/07 06:34:54;;;;;;;6.73;2.93;;;18.10;99.90;;;;;;5062860;28;20841;-61
2024/04/07 06:37:20;;;;;;;6.70;3.93;;;18.20;99.90;;;;;;5058877;28;20443;-69
2024/04/07 06:39:47;;;;;;;4.10;3.70;;;18.30;99.90;;;;;;5053300;28;20944;-69
2024/04/07 06:42:20;;;;;;;6.47;3.40;;;18.70;99.90;;;;;;5054165;28;20693;-67
2024/04/07 06:44:47;;;;;;;6.00;3.03;;;18.90;99.90;;;;;;5063819;28;20510;-69
2024/04/07 06:47:13;;;;;;;5.27;3.27;;;19.10;99.90;;;;;;5071399;28;20626;-69
2024/04/07 06:49:40;;;;;;;3.97;3.10;;;19.30;99.90;;;;;;5061864;28;20444;-68
2024/04/07 06:52:07;;;;;;;8.17;3.70;;;19.30;99.90;;;;;;5066784;28;20530;-69
2024/04/07 06:54:34;;;;;;;4.43;3.50;;;19.30;99.90;;;;;;5062663;28;20474;-69
2024/04/07 06:57:00;;;;;;;3.10;2.80;;;19.40;99.90;;;;;;5060123;28;20956;-69
2024/04/07 06:59:27;;;;;;;5.77;2.93;;;19.40;99.90;;;;;;5060963;28;20470;-68
2024/04/07 07:01:53;;;;;;;4.43;3.17;;;19.50;99.90;;;;;;5060310;28;20727;-61
2024/04/07 07:04:19;;;;;;;3.60;3.30;;;19.70;99.90;;;;;;5059510;28;20475;-61
2024/04/07 07:06:45;;;;;;;4.97;3.20;;;19.80;99.90;;;;;;5059805;28;20691;-61
2024/04/07 07:09:14;;;;;;;2.90;2.40;;;19.90;99.90;;;;;;5059006;28;20435;-63
2024/04/07 07:11:40;;;;;;;4.13;2.83;;;20.00;99.90;;;;;;5058184;28;20923;-64
2024/04/07 07:14:06;;;;;;;4.20;3.07;;;20.10;99.90;;;;;;5062236;28;20787;-63
2024/04/07 07:16:32;;;;;;;3.30;2.93;;;20.20;99.90;;;;;;5063854;28;20740;-59
2024/04/07 07:18:59;;;;;;;3.40;2.80;;;20.20;99.90;;;;;;5062236;28;20513;-62
2024/04/07 07:21:25;;;;;;;8.30;3.83;;;20.30;99.90;;;;;;5062214;28;20192;-62
2024/04/07 07:26:30;;;;;;;3.70;3.33;;;20.50;99.90;;;;;;2903423;26;20709;-63
2024/04/07 07:28:56;;;;;;;3.80;3.20;;;20.70;99.90;;;;;;5064099;28;20445;-64
2024/04/07 07:31:22;;;;;;;2.80;2.53;;;20.80;99.90;;;;;;5063888;28;20435;-61
2024/04/07 07:33:48;;;;;;;3.70;2.87;;;20.90;99.90;;;;;;5066470;28;20323;-64
2024/04/07 07:36:15;;;;;;;5.00;3.03;;;20.90;99.90;;;;;;5072357;28;20566;-61
2024/04/07 07:38:41;;;;;;;2.90;2.60;;;21.10;99.90;;;;;;5069416;28;20291;-62
2024/04/07 07:41:08;;;;;;;2.67;2.47;;;21.20;99.90;;;;;;5073170;28;20522;-63
2024/04/07 07:43:35;;;;;;;3.50;3.13;;;21.30;99.90;;;;;;5078356;28;20255;-63
2024/04/07 07:46:03;;;;;;;3.97;2.80;;;21.40;99.90;;;;;;5075600;28;20804;-63
2024/04/07 07:48:28;;;;;;;4.27;3.10;;;21.50;99.90;;;;;;5071133;28;20508;-63
2024/04/07 07:50:55;;;;;;;4.33;2.77;;;21.50;99.90;;;;;;5071055;28;20435;-61
2024/04/07 07:53:21;;;;;;;2.63;2.43;;;21.70;99.90;;;;;;5070629;28;20232;-61
2024/04/07 07:55:49;;;;;;;12.73;2.97;;;21.80;99.90;;;;;;5070710;28;20478;-61
2024/04/07 07:58:15;;;;;;;2.50;2.30;;;22.00;99.90;;;;;;5068972;28;20645;-64
2024/04/07 08:00:43;;;;;;;6.70;2.83;;;22.20;99.90;;;;;;5074238;28;20446;-61
2024/04/07 08:03:09;;;;;;;2.90;2.60;;;22.30;99.90;;;;;;5072738;28;20995;-62
2024/04/07 08:05:36;;;;;;;3.60;2.80;;;22.40;99.90;;;;;;5070980;28;20462;-61
2024/04/07 08:08:02;;;;;;;2.60;2.40;;;22.50;99.90;;;;;;5071840;28;20196;-63
2024/04/07 08:10:29;;;;;;;2.70;2.20;;;22.60;99.90;;;;;;5072079;28;20445;-61
2024/04/07 08:12:55;;;;;;;2.83;2.10;;;22.70;99.90;;;;;;5072267;28;20887;-63
2024/04/07 08:15:21;;;;;;;3.07;2.40;;;22.80;99.90;;;;;;5072585;28;20478;-63
2024/04/07 08:17:50;;;;;;;3.67;1.90;;;22.90;99.90;;;;;;5073885;28;20200;-63
2024/04/07 08:20:17;;;;;;;5.13;2.07;;;23.10;99.90;;;;;;5071724;28;20477;-63
2024/04/07 08:22:44;;;;;;;3.60;2.20;;;23.20;99.90;;;;;;5074290;28;20888;-63
2024/04/07 08:25:11;;;;;;;2.90;2.50;;;23.50;98.80;;;;;;5066851;28;20986;-63
2024/04/07 08:27:38;;;;;;;3.77;2.30;;;23.90;98.90;;;;;;5078302;28;21030;-64
2024/04/07 08:30:07;;;;;;;7.67;2.30;;;24.50;96.60;;;;;;5078736;28;20439;-63
2024/04/07 08:32:38;;;;;;;2.73;2.00;;;25.20;94.10;;;;;;5077179;28;20938;-63
2024/04/07 08:35:06;;;;;;;2.33;2.00;;;25.70;91.60;;;;;;5076333;28;20544;-65
2024/04/07 08:37:33;;;;;;;2.87;2.07;;;26.40;89.90;;;;;;5076395;28;20456;-63
2024/04/07 08:39:58;;;;;;;4.00;1.70;;;27.10;86.80;;;;;;5075745;28;20866;-62
2024/04/07 08:42:29;;;;;;;2.30;2.10;;;27.60;81.40;;;;;;5078295;28;20494;-62
2024/04/07 08:44:57;;;;;;;3.70;2.03;;;28.30;77.10;;;;;;5075885;28;20218;-62
2024/04/07 08:47:26;;;;;;;2.83;1.70;;;28.90;73.30;;;;;;5074703;28;20525;-62
2024/04/07 08:49:52;;;;;;;3.10;2.10;;;29.20;69.00;;;;;;5076453;28;20446;-64
2024/04/07 08:52:24;;;;;;;6.10;2.00;;;29.00;62.00;;;;;;5074545;28;20892;-62
2024/04/07 08:54:50;;;;;;;3.13;1.93;;;28.50;60.50;;;;;;5075232;28;20520;-63
2024/04/07 08:57:18;;;;;;;3.03;1.63;;;28.30;59.20;;;;;;5077112;28;20439;-62
2024/04/07 08:59:49;;;;;;;2.97;1.67;;;27.90;59.40;;;;;;5075916;28;20436;-63
2024/04/07 09:02:20;;;;;;;2.37;1.70;;;27.70;60.10;;;;;;5073444;28;20434;-59
2024/04/07 09:04:46;;;;;;;5.23;2.07;;;27.80;60.50;;;;;;5073171;28;20499;-59
2024/04/07 09:07:16;;;;;;;3.73;1.93;;;28.30;61.90;;;;;;5073220;28;20493;-60
2024/04/07 09:09:43;;;;;;;4.43;2.33;;;28.80;60.60;;;;;;5073790;28;20495;-62
2024/04/07 09:12:10;;;;;;;2.70;1.70;;;29.20;58.90;;;;;;5074098;28;20454;-62
2024/04/07 09:14:38;;;;;;;3.80;1.70;;;29.50;58.10;;;;;;5072972;28;20466;-61
2024/04/07 09:17:07;;;;;;;4.30;2.00;;;29.60;56.80;;;;;;5073798;28;20498;-62
2024/04/07 09:19:36;;;;;;;2.47;2.27;;;29.60;57.00;;;;;;5071380;28;20790;-60
2024/04/07 09:22:03;;;;;;;1.90;1.67;;;29.50;57.00;;;;;;5073098;28;20470;-61
2024/04/07 09:24:31;;;;;;;7.43;2.30;;;29.40;56.20;;;;;;5074139;28;20910;-60
2024/04/07 09:27:05;;;;;;;4.40;1.90;;;29.10;56.60;;;;;;5073350;28;20449;-61
2024/04/07 09:29:32;;;;;;;4.67;2.20;;;28.70;57.10;;;;;;5073361;28;20459;-62
2024/04/07 09:32:00;;;;;;;5.67;2.77;;;28.70;57.80;;;;;;5072031;28;20532;-61
2024/04/07 09:34:28;;;;;;;3.30;2.17;;;28.50;57.70;;;;;;5069004;28;20462;-61
2024/04/07 09:36:54;;;;;;;2.60;1.53;;;28.30;58.80;;;;;;5071566;28;20448;-61
2024/04/07 09:39:23;;;;;;;5.20;2.83;;;28.20;58.40;;;;;;5072110;28;20947;-61
2024/04/07 09:41:52;;;;;;;5.27;1.87;;;27.70;58.70;;;;;;5072538;28;20932;-59
2024/04/07 09:44:22;;;;;;;3.27;1.80;;;27.50;59.00;;;;;;5071756;28;20479;-56
2024/04/07 09:46:57;;;;;;;2.90;2.33;;;27.30;59.90;;;;;;5072922;28;20443;-55
2024/04/07 09:49:25;;;;;;;2.70;2.00;;;26.70;60.60;;;;;;5073156;28;20441;-60
2024/04/07 09:51:55;;;;;;;3.73;2.50;;;26.20;63.10;;;;;;5073383;28;20481;-60
2024/04/07 09:54:40;;;;;;;6.30;2.20;;;25.90;63.00;;;;;;5069768;28;20462;-60
2024/04/07 09:57:11;;;;;;;6.03;2.10;;;25.70;63.80;;;;;;5071726;28;20492;-63
2024/04/07 09:59:40;;;;;;;2.83;2.33;;;25.60;64.80;;;;;;5069973;28;20464;-59
2024/04/07 10:02:06;;;;;;;1.73;1.60;;;25.20;65.20;;;;;;5073386;28;20435;-63
2024/04/07 10:04:34;;;;;;;15.23;2.53;;;24.90;66.00;;;;;;5068989;28;20837;-62
2024/04/07 10:07:01;;;;;;;3.10;2.23;;;24.80;67.30;;;;;;5072915;28;20926;-61
2024/04/07 10:09:29;;;;;;;4.27;2.57;;;24.80;68.10;;;;;;5068646;28;20449;-63
2024/04/07 10:11:55;;;;;;;8.47;2.27;;;24.80;67.30;;;;;;5072827;28;20467;-63
2024/04/07 10:14:23;;;;;;;8.20;2.57;;;24.70;67.50;;;;;;5073994;28;20890;-62
2024/04/07 10:16:51;;;;;;;2.90;2.10;;;24.70;68.80;;;;;;5074368;28;20435;-62
2024/04/07 10:19:19;;;;;;;2.87;2.23;;;24.70;68.60;;;;;;5073094;28;20475;-60
2024/04/07 10:21:45;;;;;;;5.37;2.63;;;24.70;69.20;;;;;;5072164;28;20435;-61
2024/04/07 10:24:12;;;;;;;2.73;2.10;;;24.70;68.90;;;;;;5071615;28;20566;-62
2024/04/07 10:26:40;;;;;;;4.90;1.97;;;24.60;69.80;;;;;;5072235;28;20505;-63
2024/04/07 10:29:08;;;;;;;3.60;2.20;;;24.70;70.00;;;;;;5072516;28;20435;-62
2024/04/07 10:31:36;;;;;;;2.10;1.90;;;24.80;70.40;;;;;;5073011;28;20536;-61
2024/04/07 10:34:05;;;;;;;3.50;2.30;;;24.80;69.80;;;;;;5073524;28;21031;-60
2024/04/07 10:36:33;;;;;;;3.50;1.93;;;24.70;69.70;;;;;;5074338;28;20439;-62
2024/04/07 10:39:02;;;;;;;5.53;2.83;;;24.60;69.40;;;;;;5074850;28;20810;-60
2024/04/07 10:41:30;;;;;;;4.67;1.90;;;24.30;70.90;;;;;;5073334;28;20455;-62
2024/04/07 10:43:58;;;;;;;2.83;1.83;;;24.10;72.10;;;;;;5068949;28;20963;-61
2024/04/07 10:46:24;;;;;;;2.47;2.03;;;24.00;74.10;;;;;;5073508;28;20474;-58
2024/04/07 10:48:53;;;;;;;4.27;2.63;;;24.00;73.60;;;;;;5073575;28;20522;-59
2024/04/07 10:51:20;;;;;;;3.30;2.37;;;23.80;73.80;;;;;;5072954;28;20891;-60
2024/04/07 10:53:57;;;;;;;3.40;2.27;;;23.50;75.80;;;;;;5073123;28;20995;-62
2024/04/07 10:56:23;;;;;;;5.00;2.67;;;23.50;77.60;;;;;;5074063;28;20481;-62
2024/04/07 10:58:50;;;;;;;3.00;2.03;;;23.50;78.00;;;;;;5073919;28;20463;-60
2024/04/07 11:01:17;;;;;;;3.53;2.40;;;23.30;78.40;;;;;;5072415;28;20629;-58
2024/04/07 11:03:44;;;;;;;2.83;2.50;;;23.40;78.80;;;;;;5069149;28;20543;-60
2024/04/07 11:06:10;;;;;;;4.00;2.30;;;23.30;80.00;;;;;;5070285;28;20491;-62
2024/04/07 11:08:39;;;;;;;2.70;1.87;;;23.30;80.40;;;;;;5073681;28;20478;-64
2024/04/07 11:11:06;;;;;;;3.03;2.43;;;23.30;80.90;;;;;;5074362;28;20209;-61
2024/04/07 11:13:34;;;;;;;7.47;2.20;;;23.40;81.40;;;;;;5074097;28;20488;-59
2024/04/07 11:16:00;;;;;;;3.10;1.90;;;23.40;81.50;;;;;;5072324;28;20956;-62
2024/04/07 11:18:27;;;;;;;8.17;2.50;;;23.50;83.20;;;;;;5070529;28;20498;-62
2024/04/07 11:20:53;;;;;;;7.00;2.73;;;23.60;83.20;;;;;;5073503;28;20500;-62
2024/04/07 11:23:21;;;;;;;2.80;1.90;;;23.70;82.70;;;;;;5066823;28;20451;-63
2024/04/07 11:25:48;;;;;;;3.07;2.10;;;23.80;83.90;;;;;;5070244;28;20479;-64
2024/04/07 11:28:17;;;;;;;2.63;1.90;;;23.80;83.30;;;;;;5071522;28;20439;-63
2024/04/07 11:30:45;;;;;;;3.10;2.37;;;23.90;84.30;;;;;;5069646;28;20847;-62
2024/04/07 11:33:12;;;;;;;2.73;2.53;;;24.10;84.20;;;;;;5071066;28;20440;-63
2024/04/07 11:35:39;;;;;;;5.13;2.77;;;24.20;82.70;;;;;;5070644;28;20546;-61
2024/04/07 11:38:06;;;;;;;3.57;2.03;;;24.30;81.40;;;;;;5068555;28;20525;-63
2024/04/07 11:40:32;;;;;;;4.50;2.10;;;24.40;81.80;;;;;;5070574;28;20960;-64
2024/04/07 11:43:00;;;;;;;7.37;2.40;;;24.50;80.80;;;;;;5069524;28;20947;-63
2024/04/07 11:45:28;;;;;;;6.83;2.30;;;24.60;79.50;;;;;;5068346;28;20531;-64
2024/04/07 11:47:56;;;;;;;2.30;1.77;;;24.70;78.50;;;;;;5069540;28;20439;-63
2024/04/07 11:50:22;;;;;;;5.13;2.37;;;24.70;77.60;;;;;;5069365;28;20526;-63
2024/04/07 11:52:50;;;;;;;8.80;2.10;;;24.50;78.10;;;;;;5067128;28;20860;-63
2024/04/07 11:55:16;;;;;;;7.07;2.33;;;24.60;78.30;;;;;;5068277;28;20558;-63
2024/04/07 11:57:43;;;;;;;5.20;2.03;;;24.70;79.00;;;;;;5071393;28;20444;-64
2024/04/07 12:00:12;;;;;;;4.37;2.30;;;24.90;79.00;;;;;;5068534;28;20449;-64
2024/04/07 12:02:39;;;;;;;5.97;3.37;;;24.90;78.30;;;;;;5074181;28;20447;-62
2024/04/07 12:05:06;;;;;;;5.40;2.20;;;24.90;79.10;;;;;;5075349;28;20814;-63
2024/04/07 12:07:33;;;;;;;2.83;1.90;;;24.90;77.30;;;;;;5076299;28;20440;-64
2024/04/07 12:09:59;;;;;;;2.93;2.07;;;24.90;77.70;;;;;;5075722;28;20520;-63
2024/04/07 12:12:27;;;;;;;2.40;1.90;;;24.90;78.70;;;;;;5075566;28;20558;-64
2024/04/07 12:14:53;;;;;;;4.03;2.30;;;24.90;78.20;;;;;;5075859;28;20605;-63
2024/04/07 12:17:22;;;;;;;2.87;1.67;;;25.00;78.00;;;;;;5074614;28;20525;-63
2024/04/07 12:19:48;;;;;;;3.47;1.80;;;25.00;77.20;;;;;;5086028;28;20441;-63
2024/04/07 12:22:17;;;;;;;5.67;2.10;;;24.90;76.40;;;;;;5079984;28;20506;-63
2024/04/07 12:24:43;;;;;;;5.83;1.90;;;24.90;77.00;;;;;;5080120;28;20252;-63
2024/04/07 12:27:10;;;;;;;5.53;1.83;;;25.00;78.80;;;;;;5077070;28;20537;-62
2024/04/07 12:29:36;;;;;;;3.17;2.20;;;25.00;75.70;;;;;;5071535;28;20492;-62
2024/04/07 12:32:03;;;;;;;5.80;2.30;;;25.00;75.80;;;;;;5076579;28;20447;-63
2024/04/07 12:34:31;;;;;;;3.57;2.00;;;25.10;75.60;;;;;;5069642;28;21002;-63
2024/04/07 12:36:58;;;;;;;2.77;1.83;;;25.00;75.10;;;;;;5075110;28;20451;-63
2024/04/07 12:39:23;;;;;;;3.67;1.90;;;25.10;76.30;;;;;;5075702;28;20528;-62
2024/04/07 12:41:50;;;;;;;3.87;1.97;;;25.00;75.10;;;;;;5076935;28;20474;-63
2024/04/07 12:44:17;;;;;;;3.37;2.50;;;25.10;76.00;;;;;;5076714;28;20536;-63
2024/04/07 12:46:45;;;;;;;2.73;2.17;;;25.10;76.00;;;;;;5076335;28;20450;-62
2024/04/07 12:49:12;;;;;;;4.03;2.70;;;25.10;77.10;;;;;;5074615;28;20451;-59
2024/04/07 12:51:40;;;;;;;5.60;1.90;;;25.30;78.60;;;;;;5077406;28;20528;-60